Airfield :







YOU CAN JOIN US ON...

 
LOGIN :

Register | Disclaimer

   EN    FR    IT 

 









Legend :    VFR   Marginal VFR   IFR   Intensive IFR   Very Intensive IFR
Visi :
Ceiling :
>= 8 km
>= 3000ft
5 to 8 km
1000 to 3000 ft
1500m to 5 km
500 to 1000 ft
800 to 1500m
200 to 500 ft
< 800m
< 200 ft
Symbols :   Thunderstorms  Fog  Heavy snow  Heavy precipitations  Wind > 20 kt






- Airport Elevation : 39 ft
- IATA code : YNA


CYNA - Natashquan

CURRENT METAR :
  • 180200Z AUTO 24008KT 9SM BKN021 OVC071 10/09 A2972 RMK SLP068

EXPIRED METARs :
  • 180150Z AUTO 24006KT 9SM BKN021 BKN071 10/09 A2972 RMK SLP068
  • 180140Z AUTO 24006KT 9SM SCT021 BKN050 BKN071 10/09 A2972 RMK SLP068
  • 180100Z AUTO 24007KT 9SM CLR 10/09 A2972 RMK SLP066
  • 180000Z AUTO 24006KT 9SM CLR 11/09 A2970 RMK SLP058

TAF TAF CYNA
Valid from the 18 at 02:00 until the 18 at 14:00 UTC


180138Z 1802/1814 21005KT P6SM SCT050
TEMPO 1802/1807 BKN007 OVC050
PROB30 1803/1807 1/2SM FG OVC002
FM180700 22005KT 1SM -DZ BR OVC005
TEMPO 1807/1812 6SM BR OVC008
FM181200 22010KT 5SM BR BKN007
TEMPO 1812/1814 P6SM NSW OVC012 RMK FCST BASED ON AUTO OBS. NXT FCST BY 180800Z
CZUL FIR / North America



MET'MAP, your aeronautical weather chart ! - Copyright ORBIFLY December 2007 - Disclaimer

ORBIFLY MET'MAP TEAM :

Programming & Development : Alexandra Zaïnal
Concept & original design : Baudouin d'Aumeries
Assistance for programming : Marc-Olivier Méhu
Technical & hardware support : Manuel Goepfert

Contact : metmap@orbifly.com




SOURCES & CREDITS :

   NOAA